Terminal Aerodrome Forecast
Issued by NWS

Home | Current Version | Previous Version | Text Only | Print | Product List | Glossary On
Versions: 1 2 3 4 5 6 7 8 9 10 11 12 13 14 15 16 17 18 19 20
000
FTUS43 KLSX 262324
TAFCPS
TAF
KCPS 262324Z 2700/2724 18004KT P6SM SCT040 SCT100
      TEMPO 2700/2702 3SM TSRA BKN035CB
     FM270300 VRB03KT P6SM SCT100
      TEMPO 2709/2713 3SM BR
     FM271600 VRB04KT P6SM SCT050=

USA.gov is the U.S. government's official web portal to all federal, state and local government web resources and services.